createdAt,value
2023-03-18T00:00:19.140Z,14.27
2023-03-18T00:02:48.106Z,13.75
2023-03-18T00:05:15.305Z,13.52
2023-03-18T00:07:42.338Z,11.10
2023-03-18T00:10:10.431Z,12.77
2023-03-18T00:12:39.006Z,15.10
2023-03-18T00:15:10.500Z,12.80
2023-03-18T00:17:37.975Z,16.63
2023-03-18T00:20:07.021Z,15.57
2023-03-18T00:22:34.763Z,14.93
2023-03-18T00:25:01.986Z,13.10
2023-03-18T00:27:29.137Z,16.02
2023-03-18T00:29:56.342Z,13.57
2023-03-18T00:32:23.691Z,13.82
2023-03-18T00:34:50.891Z,11.75
2023-03-18T00:37:30.205Z,13.07
2023-03-18T00:40:06.445Z,14.98
2023-03-18T00:42:47.623Z,14.25
2023-03-18T00:45:16.415Z,14.63
2023-03-18T00:47:43.839Z,16.52
2023-03-18T00:50:11.451Z,13.63
2023-03-18T00:52:39.692Z,14.35
2023-03-18T00:55:07.437Z,11.95
2023-03-18T00:57:34.773Z,13.55
2023-03-18T01:00:02.019Z,13.57
2023-03-18T01:02:29.819Z,13.93
2023-03-18T01:04:58.077Z,15.40
2023-03-18T01:07:25.157Z,12.35
2023-03-18T01:09:52.436Z,13.07
2023-03-18T01:12:19.348Z,11.23
2023-03-18T01:14:47.037Z,13.40
2023-03-18T01:17:14.668Z,14.50
2023-03-18T01:19:42.389Z,15.32
2023-03-18T01:22:09.605Z,12.02
2023-03-18T01:24:42.539Z,13.32
2023-03-18T01:27:10.547Z,11.65
2023-03-18T01:29:38.315Z,11.82
2023-03-18T01:32:13.341Z,13.20
2023-03-18T01:34:41.627Z,13.52
2023-03-18T01:37:08.995Z,11.98
2023-03-18T01:39:39.378Z,11.82
2023-03-18T01:42:12.849Z,12.40
2023-03-18T01:44:39.919Z,14.57
2023-03-18T01:47:07.958Z,13.30
2023-03-18T01:49:38.476Z,12.57
2023-03-18T01:52:12.969Z,12.98
2023-03-18T01:54:43.236Z,11.43
2023-03-18T01:57:10.610Z,14.45
2023-03-18T01:59:39.467Z,12.38
2023-03-18T02:02:09.309Z,15.52
2023-03-18T02:04:42.458Z,12.02
2023-03-18T02:07:19.817Z,14.77
2023-03-18T02:09:47.306Z,14.57
2023-03-18T02:12:17.808Z,14.15
2023-03-18T02:14:44.839Z,12.63
2023-03-18T02:17:15.337Z,15.05
2023-03-18T02:20:11.450Z,13.93
2023-03-18T02:22:50.743Z,15.07
2023-03-18T02:25:32.957Z,16.27
2023-03-18T02:28:03.408Z,12.93
2023-03-18T02:30:41.655Z,14.18
2023-03-18T02:33:10.977Z,13.85
2023-03-18T02:35:38.512Z,17.90
2023-03-18T02:38:05.694Z,17.73
2023-03-18T02:40:37.821Z,15.18
2023-03-18T02:43:31.134Z,17.63
2023-03-18T02:46:31.079Z,14.40
2023-03-18T02:49:01.725Z,16.90
2023-03-18T02:51:30.068Z,15.85
2023-03-18T02:54:10.223Z,15.10
2023-03-18T02:56:38.212Z,17.50
2023-03-18T02:59:05.568Z,19.58
2023-03-18T03:01:33.809Z,18.05
2023-03-18T03:04:01.124Z,16.67
2023-03-18T03:06:28.157Z,18.02
2023-03-18T03:08:55.805Z,15.05
2023-03-18T03:11:24.466Z,16.95
2023-03-18T03:13:54.810Z,18.33
2023-03-18T03:16:21.822Z,15.77
2023-03-18T03:18:48.825Z,15.65
2023-03-18T03:21:16.201Z,18.02
2023-03-18T03:23:43.815Z,15.68
2023-03-18T03:26:10.769Z,17.65
2023-03-18T03:28:37.989Z,19.48
2023-03-18T03:31:05.110Z,14.27
2023-03-18T03:33:32.114Z,16.05
2023-03-18T03:35:59.281Z,15.07
2023-03-18T03:38:26.521Z,17.65
2023-03-18T03:40:55.220Z,15.82
2023-03-18T03:43:22.684Z,14.13
2023-03-18T03:45:49.709Z,14.25
2023-03-18T03:48:16.747Z,15.05
2023-03-18T03:50:43.908Z,15.73
2023-03-18T03:53:11.085Z,14.45
2023-03-18T03:55:38.358Z,14.27
2023-03-18T03:58:05.432Z,12.90
2023-03-18T04:00:33.358Z,15.68
2023-03-18T04:03:00.900Z,15.25
2023-03-18T04:05:29.673Z,14.10
2023-03-18T04:08:01.719Z,15.75
2023-03-18T04:10:36.839Z,14.77
2023-03-18T04:13:06.052Z,13.48
2023-03-18T04:15:33.594Z,14.27
2023-03-18T04:18:07.746Z,16.95
2023-03-18T04:20:37.665Z,15.38
2023-03-18T04:23:10.685Z,15.50
2023-03-18T04:25:37.688Z,14.55
2023-03-18T04:28:04.851Z,14.90
2023-03-18T04:30:32.344Z,14.90
2023-03-18T04:33:13.131Z,12.50
2023-03-18T04:35:43.634Z,15.27
2023-03-18T04:38:12.559Z,15.55
2023-03-18T04:40:39.782Z,14.80
2023-03-18T04:43:06.902Z,16.02
2023-03-18T04:45:34.296Z,16.40
2023-03-18T04:48:02.890Z,16.25
2023-03-18T04:50:33.427Z,13.23
2023-03-18T04:53:01.816Z,15.35
2023-03-18T04:55:30.868Z,18.60
2023-03-18T04:58:00.603Z,15.98
2023-03-18T05:00:29.545Z,14.32
2023-03-18T05:03:09.818Z,13.60
2023-03-18T05:05:38.663Z,14.07
2023-03-18T05:08:09.136Z,12.98
2023-03-18T05:10:36.921Z,14.90
2023-03-18T05:13:03.985Z,16.38
2023-03-18T05:15:33.883Z,11.68
2023-03-18T05:18:02.505Z,14.75
2023-03-18T05:20:29.899Z,12.75
2023-03-18T05:22:58.278Z,13.27
2023-03-18T05:25:41.753Z,14.80
2023-03-18T05:28:11.257Z,13.13
2023-03-18T05:30:47.559Z,13.07
2023-03-18T05:33:16.412Z,13.27
2023-03-18T05:35:51.271Z,14.95
2023-03-18T05:38:21.786Z,13.38
2023-03-18T05:40:49.223Z,13.30
2023-03-18T05:43:22.021Z,12.80
2023-03-18T05:45:52.838Z,12.93
2023-03-18T05:48:24.823Z,16.40
2023-03-18T05:50:55.903Z,13.15
2023-03-18T05:53:26.459Z,13.35
2023-03-18T05:56:02.181Z,14.77
2023-03-18T05:58:31.684Z,15.45
2023-03-18T06:01:14.786Z,16.80
2023-03-18T06:03:42.842Z,18.52
2023-03-18T06:06:09.896Z,15.77
2023-03-18T06:08:37.793Z,18.17
2023-03-18T06:11:04.898Z,16.33
2023-03-18T06:13:31.894Z,14.30
2023-03-18T06:15:59.767Z,12.88
2023-03-18T06:18:28.838Z,12.45
2023-03-18T06:20:56.276Z,14.38
2023-03-18T06:23:23.792Z,13.32
2023-03-18T06:25:51.097Z,16.13
2023-03-18T06:28:19.474Z,14.13
2023-03-18T06:30:46.932Z,14.50
2023-03-18T06:33:15.276Z,15.80
2023-03-18T06:35:42.440Z,13.18
2023-03-18T06:38:10.800Z,13.15
2023-03-18T06:40:38.858Z,12.07
2023-03-18T06:43:07.920Z,13.18
2023-03-18T06:45:38.181Z,10.68
2023-03-18T06:48:08.489Z,14.20
2023-03-18T06:50:39.648Z,12.27
2023-03-18T06:53:12.734Z,14.77
2023-03-18T06:55:40.383Z,10.80
2023-03-18T06:58:08.339Z,12.68
2023-03-18T07:00:45.488Z,10.32
2023-03-18T07:03:18.114Z,11.38
2023-03-18T07:05:45.050Z,9.52
2023-03-18T07:08:12.129Z,10.93
2023-03-18T07:10:40.453Z,7.95
2023-03-18T07:13:10.829Z,9.73
2023-03-18T07:15:42.916Z,7.97
2023-03-18T07:18:12.001Z,8.50
2023-03-18T07:20:39.229Z,10.00
2023-03-18T07:23:06.255Z,10.05
2023-03-18T07:25:33.551Z,10.40
2023-03-18T07:28:00.720Z,9.63
2023-03-18T07:30:28.930Z,12.10
2023-03-18T07:32:56.688Z,9.80
2023-03-18T07:35:23.855Z,11.48
2023-03-18T07:37:51.473Z,11.10
2023-03-18T07:40:18.814Z,12.13
2023-03-18T07:42:45.863Z,9.77
2023-03-18T07:45:12.934Z,8.98
2023-03-18T07:47:39.867Z,10.48
2023-03-18T07:50:07.657Z,12.57
2023-03-18T07:52:34.668Z,9.23
2023-03-18T07:55:01.944Z,10.30
2023-03-18T07:57:28.949Z,11.65
2023-03-18T07:59:56.269Z,9.23
2023-03-18T08:02:23.665Z,8.40
2023-03-18T08:04:51.746Z,7.70
2023-03-18T08:07:19.399Z,7.72
2023-03-18T08:09:46.768Z,6.03
2023-03-18T08:12:13.701Z,6.63
2023-03-18T08:14:40.648Z,6.30
2023-03-18T08:17:09.007Z,6.65
2023-03-18T08:19:36.363Z,6.70
2023-03-18T08:22:03.468Z,7.72
2023-03-18T08:24:30.706Z,5.22
2023-03-18T08:26:57.736Z,5.68
2023-03-18T08:29:24.735Z,5.40
2023-03-18T08:31:51.733Z,7.55
2023-03-18T08:34:18.802Z,5.63
2023-03-18T08:36:46.237Z,7.10
2023-03-18T08:39:13.228Z,5.82
2023-03-18T08:41:40.149Z,6.88
2023-03-18T08:44:08.520Z,5.50
2023-03-18T08:46:35.773Z,4.93
2023-03-18T08:49:03.140Z,5.97
2023-03-18T08:51:30.163Z,6.03
2023-03-18T08:53:57.122Z,7.57
2023-03-18T08:56:24.180Z,5.50
2023-03-18T08:58:51.305Z,4.55
2023-03-18T09:01:22.739Z,5.07
2023-03-18T09:03:50.909Z,5.20
2023-03-18T09:06:18.125Z,6.72
2023-03-18T09:08:45.181Z,5.38
2023-03-18T09:11:13.706Z,6.18
2023-03-18T09:13:41.213Z,5.93
2023-03-18T09:16:08.537Z,5.13
2023-03-18T09:18:35.774Z,5.43
2023-03-18T09:21:03.372Z,8.18
2023-03-18T09:23:30.485Z,5.53
2023-03-18T09:25:57.480Z,5.05
2023-03-18T09:28:24.807Z,5.70
2023-03-18T09:30:51.824Z,5.65
2023-03-18T09:33:18.985Z,5.22
2023-03-18T09:35:45.964Z,7.47
2023-03-18T09:38:17.021Z,5.97
2023-03-18T09:41:21.937Z,5.30
2023-03-18T09:43:57.537Z,6.38
2023-03-18T09:46:45.275Z,6.43
2023-03-18T09:50:08.421Z,7.65
2023-03-18T09:52:39.727Z,5.10
2023-03-18T09:55:12.733Z,4.60
2023-03-18T09:57:42.494Z,4.60
2023-03-18T10:00:20.587Z,6.00
2023-03-18T10:03:10.545Z,5.82
2023-03-18T10:05:49.061Z,6.18
2023-03-18T10:08:36.520Z,6.03
2023-03-18T10:11:06.354Z,5.78
2023-03-18T10:13:38.842Z,5.63
2023-03-18T10:16:07.382Z,5.90
2023-03-18T10:18:35.344Z,6.15
2023-03-18T10:21:23.919Z,5.45
2023-03-18T10:24:15.058Z,5.78
2023-03-18T10:26:55.499Z,6.28
2023-03-18T10:29:42.241Z,6.10
2023-03-18T10:32:18.757Z,6.63
2023-03-18T10:34:46.278Z,5.28
2023-03-18T10:37:24.095Z,5.22
2023-03-18T10:39:51.124Z,5.45
2023-03-18T10:42:23.471Z,5.85
2023-03-18T10:44:50.899Z,6.25
2023-03-18T10:47:21.298Z,4.72
2023-03-18T10:50:18.685Z,5.80
2023-03-18T10:52:49.643Z,6.57
2023-03-18T10:55:18.799Z,7.35
2023-03-18T10:57:45.944Z,5.80
2023-03-18T11:00:27.982Z,4.60
2023-03-18T11:02:55.691Z,4.68
2023-03-18T11:05:23.008Z,4.28
2023-03-18T11:08:01.362Z,7.13
2023-03-18T11:10:34.542Z,4.20
2023-03-18T11:13:06.310Z,3.60
2023-03-18T11:15:43.033Z,4.65
2023-03-18T11:18:25.868Z,4.35
2023-03-18T11:21:01.040Z,3.08
2023-03-18T11:23:54.476Z,3.60
2023-03-18T11:26:26.405Z,2.92
2023-03-18T11:29:04.854Z,3.42
2023-03-18T11:31:32.520Z,4.90
2023-03-18T11:33:59.681Z,4.53
2023-03-18T11:36:28.010Z,3.08
2023-03-18T11:39:01.731Z,3.72
2023-03-18T11:41:30.226Z,3.78
2023-03-18T11:43:59.283Z,3.47
2023-03-18T11:46:51.046Z,3.75
2023-03-18T11:49:20.719Z,4.88
2023-03-18T11:52:26.284Z,3.88
2023-03-18T11:55:14.066Z,3.22
2023-03-18T11:57:59.262Z,3.90
2023-03-18T12:00:33.538Z,3.55
2023-03-18T12:03:19.074Z,4.57
2023-03-18T12:06:20.436Z,3.55
2023-03-18T12:08:57.186Z,3.13
2023-03-18T12:11:30.832Z,3.00
2023-03-18T12:14:22.525Z,3.85
2023-03-18T12:17:05.479Z,4.28
2023-03-18T12:19:38.195Z,2.92
2023-03-18T12:22:15.451Z,3.75
2023-03-18T12:25:01.277Z,3.40
2023-03-18T12:27:35.457Z,4.47
2023-03-18T12:30:09.936Z,3.83
2023-03-18T12:32:49.299Z,3.83
2023-03-18T12:35:18.343Z,5.75
2023-03-18T12:37:52.350Z,5.25
2023-03-18T12:40:29.322Z,4.40
2023-03-18T12:43:11.115Z,4.63
2023-03-18T12:48:33.670Z,4.97
2023-03-18T12:51:10.750Z,6.45
2023-03-18T12:53:49.149Z,5.63
2023-03-18T12:56:21.575Z,5.03
2023-03-18T12:58:51.410Z,4.10
2023-03-18T13:01:24.287Z,4.05
2023-03-18T13:03:53.575Z,4.75
2023-03-18T13:06:33.935Z,4.15
2023-03-18T13:09:22.002Z,4.90
2023-03-18T13:11:50.516Z,4.47
2023-03-18T13:14:38.868Z,4.28
2023-03-18T13:17:08.930Z,6.68
2023-03-18T13:19:36.459Z,4.50
2023-03-18T13:22:03.522Z,4.45
2023-03-18T13:24:48.473Z,4.25
2023-03-18T13:27:19.802Z,4.72
2023-03-18T13:30:01.494Z,5.47
2023-03-18T13:33:03.852Z,5.80
2023-03-18T13:35:57.561Z,4.78
2023-03-18T13:38:42.644Z,4.53
2023-03-18T13:41:34.644Z,4.65
2023-03-18T13:46:30.998Z,3.80
2023-03-18T13:49:01.477Z,5.47
2023-03-18T13:51:28.857Z,4.55
2023-03-18T13:54:05.816Z,4.70
2023-03-18T13:56:33.956Z,5.15
2023-03-18T13:59:06.517Z,4.32
2023-03-18T14:01:35.721Z,3.67
2023-03-18T14:04:23.526Z,3.53
2023-03-18T14:06:55.936Z,3.42
2023-03-18T14:09:25.926Z,4.13
2023-03-18T14:11:53.349Z,4.53
2023-03-18T14:14:40.739Z,4.45
2023-03-18T14:17:15.846Z,5.68
2023-03-18T14:19:45.140Z,5.03
2023-03-18T14:22:22.001Z,4.50
2023-03-18T14:25:18.112Z,5.78
2023-03-18T14:28:19.544Z,4.53
2023-03-18T14:30:57.795Z,4.57
2023-03-18T14:33:24.899Z,4.75
2023-03-18T14:35:59.592Z,4.93
2023-03-18T14:38:47.565Z,5.25
2023-03-18T14:41:42.192Z,6.05
2023-03-18T14:44:21.546Z,5.55
2023-03-18T14:46:58.247Z,5.38
2023-03-18T14:50:05.105Z,6.28
2023-03-18T14:52:34.646Z,5.85
2023-03-18T14:55:05.392Z,5.05
2023-03-18T14:57:32.810Z,6.65
2023-03-18T15:00:00.258Z,5.03
2023-03-18T15:02:37.977Z,5.28
2023-03-18T15:05:05.495Z,4.78
2023-03-18T15:07:41.663Z,5.13
2023-03-18T15:10:11.280Z,5.07
2023-03-18T15:12:38.291Z,4.70
2023-03-18T15:15:06.268Z,4.78
2023-03-18T15:17:33.226Z,4.55
2023-03-18T15:20:01.297Z,4.47
2023-03-18T15:22:29.973Z,5.05
2023-03-18T15:25:02.423Z,4.82
2023-03-18T15:27:31.182Z,4.22
2023-03-18T15:29:59.689Z,4.63
2023-03-18T15:32:31.566Z,5.45
2023-03-18T15:35:10.673Z,4.75
2023-03-18T15:37:42.494Z,4.72
2023-03-18T15:43:09.717Z,4.95
2023-03-18T15:45:41.263Z,5.35
2023-03-18T15:48:18.502Z,4.60
2023-03-18T15:51:02.541Z,4.80
2023-03-18T15:53:44.587Z,4.85
2023-03-18T15:56:29.662Z,4.40
2023-03-18T15:59:14.531Z,3.60
2023-03-18T16:01:41.880Z,4.45
2023-03-18T16:04:12.340Z,4.20
2023-03-18T16:06:40.457Z,4.05
2023-03-18T16:09:14.523Z,4.88
2023-03-18T16:11:43.560Z,3.90
2023-03-18T16:14:16.074Z,4.20
2023-03-18T16:16:43.194Z,9.82
2023-03-18T16:19:22.533Z,5.35
2023-03-18T16:21:50.110Z,5.55
2023-03-18T16:24:17.380Z,4.13
2023-03-18T16:26:46.280Z,4.60
2023-03-18T16:29:49.753Z,4.68
2023-03-18T16:32:16.919Z,4.15
2023-03-18T16:34:46.623Z,5.03
2023-03-18T16:37:24.736Z,8.88
2023-03-18T16:39:52.121Z,32.15
2023-03-18T16:42:19.203Z,5.18
2023-03-18T16:44:46.681Z,4.75
2023-03-18T16:47:21.301Z,3.85
2023-03-18T16:49:48.790Z,4.00
2023-03-18T16:52:15.868Z,4.10
2023-03-18T16:54:42.940Z,4.07
2023-03-18T16:57:16.479Z,4.30
2023-03-18T16:59:46.536Z,4.20
2023-03-18T17:02:31.188Z,4.47
2023-03-18T17:04:58.438Z,4.85
2023-03-18T17:07:25.804Z,6.03
2023-03-18T17:09:53.624Z,4.35
2023-03-18T17:12:20.724Z,3.80
2023-03-18T17:14:54.676Z,4.72
2023-03-18T17:17:35.741Z,4.88
2023-03-18T17:20:03.812Z,4.60
2023-03-18T17:22:35.416Z,5.10
2023-03-18T17:25:02.806Z,5.13
2023-03-18T17:27:32.122Z,4.97
2023-03-18T17:29:59.177Z,4.90
2023-03-18T17:32:26.233Z,6.35
2023-03-18T17:34:53.949Z,4.63
2023-03-18T17:37:21.378Z,4.97
2023-03-18T17:39:48.500Z,4.55
2023-03-18T17:42:18.554Z,5.15
2023-03-18T17:44:45.689Z,5.45
2023-03-18T17:47:14.724Z,5.90
2023-03-18T17:49:42.373Z,4.93
2023-03-18T17:52:09.995Z,6.18
2023-03-18T17:54:37.231Z,6.03
2023-03-18T17:57:04.198Z,5.18
2023-03-18T17:59:31.650Z,5.50
2023-03-18T18:01:58.947Z,5.53
2023-03-18T18:04:26.416Z,5.25
2023-03-18T18:06:54.499Z,7.55
2023-03-18T18:09:22.125Z,6.00
2023-03-18T18:11:50.811Z,6.28
2023-03-18T18:14:26.209Z,6.07
2023-03-18T18:16:53.855Z,6.10
2023-03-18T18:19:20.846Z,5.60
2023-03-18T18:21:48.146Z,6.03
2023-03-18T18:24:18.602Z,8.10
2023-03-18T18:26:45.732Z,5.72
2023-03-18T18:29:31.108Z,6.15
2023-03-18T18:31:59.330Z,8.85
2023-03-18T18:34:26.708Z,7.07
2023-03-18T18:36:53.728Z,6.88
2023-03-18T18:39:21.153Z,7.78
2023-03-18T18:41:48.446Z,7.50
2023-03-18T18:44:15.489Z,6.50
2023-03-18T18:46:42.480Z,7.78
2023-03-18T18:49:18.567Z,6.95
2023-03-18T18:51:45.582Z,8.25
2023-03-18T18:54:12.581Z,7.82
2023-03-18T18:56:39.799Z,7.68
2023-03-18T18:59:26.769Z,7.18
2023-03-18T19:01:54.601Z,7.80
2023-03-18T19:04:24.556Z,7.78
2023-03-18T19:06:52.541Z,8.45
2023-03-18T19:09:24.624Z,9.07
2023-03-18T19:11:51.985Z,7.32
2023-03-18T19:14:24.865Z,8.48
2023-03-18T19:16:52.457Z,7.47
2023-03-18T19:19:25.927Z,7.38
2023-03-18T19:21:52.974Z,9.77
2023-03-18T19:24:30.564Z,8.32
2023-03-18T19:27:02.639Z,8.93
2023-03-18T19:29:29.978Z,9.68
2023-03-18T19:31:57.136Z,9.18
2023-03-18T19:34:24.424Z,8.75
2023-03-18T19:36:55.023Z,10.77
2023-03-18T19:39:22.641Z,9.20
2023-03-18T19:41:51.271Z,10.18
2023-03-18T19:44:25.707Z,8.95
2023-03-18T19:46:54.436Z,10.88
2023-03-18T19:49:25.226Z,9.75
2023-03-18T19:51:52.579Z,10.93
2023-03-18T19:54:32.232Z,8.55
2023-03-18T19:57:01.475Z,9.70
2023-03-18T19:59:37.457Z,11.30
2023-03-18T20:02:32.250Z,11.98
2023-03-18T20:05:00.981Z,11.52
2023-03-18T20:07:30.014Z,11.05
2023-03-18T20:09:57.229Z,9.60
2023-03-18T20:12:49.222Z,10.40
2023-03-18T20:15:18.689Z,9.93
2023-03-18T20:17:46.606Z,13.93
2023-03-18T20:20:16.496Z,9.77
2023-03-18T20:22:48.416Z,10.32
2023-03-18T20:25:28.387Z,13.40
2023-03-18T20:27:57.213Z,9.30
2023-03-18T20:30:25.739Z,9.10
2023-03-18T20:32:52.867Z,10.27
2023-03-18T20:35:19.982Z,12.02
2023-03-18T20:37:46.973Z,12.45
2023-03-18T20:40:22.204Z,11.75
2023-03-18T20:42:49.319Z,10.82
2023-03-18T20:45:16.964Z,11.13
2023-03-18T20:47:44.678Z,14.02
2023-03-18T20:50:17.015Z,10.90
2023-03-18T20:52:44.377Z,12.00
2023-03-18T20:55:31.595Z,11.43
2023-03-18T20:57:59.623Z,10.88
2023-03-18T21:00:29.225Z,9.18
2023-03-18T21:02:58.090Z,13.00
2023-03-18T21:05:28.197Z,10.77
2023-03-18T21:07:55.434Z,13.13
2023-03-18T21:10:24.370Z,9.13
2023-03-18T21:12:51.769Z,9.80
2023-03-18T21:15:23.540Z,10.30
2023-03-18T21:20:23.014Z,11.20
2023-03-18T21:22:50.360Z,11.23
2023-03-18T21:25:22.913Z,10.88
2023-03-18T21:27:50.774Z,9.93
2023-03-18T21:30:18.959Z,12.60
2023-03-18T21:32:46.423Z,9.55
2023-03-18T21:35:21.807Z,9.15
2023-03-18T21:37:49.453Z,11.13
2023-03-18T21:40:21.848Z,9.80
2023-03-18T21:42:51.832Z,10.45
2023-03-18T21:45:20.527Z,10.85
2023-03-18T21:47:47.550Z,9.43
2023-03-18T21:50:22.672Z,14.23
2023-03-18T21:52:49.824Z,12.30
2023-03-18T21:55:17.036Z,9.68
2023-03-18T21:57:44.104Z,9.20
2023-03-18T22:00:16.182Z,10.18
2023-03-18T22:02:43.289Z,8.25
2023-03-18T22:05:20.736Z,9.07
2023-03-18T22:07:47.890Z,10.82
2023-03-18T22:10:16.056Z,8.50
2023-03-18T22:12:43.071Z,8.60
2023-03-18T22:15:38.860Z,10.18
2023-03-18T22:18:07.245Z,10.30
2023-03-18T22:20:35.458Z,8.13
2023-03-18T22:23:21.837Z,9.57
2023-03-18T22:25:51.323Z,8.38
2023-03-18T22:28:18.453Z,9.27
2023-03-18T22:30:46.460Z,8.50
2023-03-18T22:33:21.756Z,8.82
2023-03-18T22:35:48.893Z,9.07
2023-03-18T22:38:16.996Z,8.63
2023-03-18T22:40:44.204Z,8.95
2023-03-18T22:43:31.760Z,7.10
2023-03-18T22:45:59.291Z,9.68
2023-03-18T22:48:26.554Z,9.48
2023-03-18T22:50:53.830Z,8.13
2023-03-18T22:53:21.943Z,6.65
2023-03-18T22:55:49.044Z,8.95
2023-03-18T22:58:21.065Z,8.52
2023-03-18T23:00:48.342Z,8.30
2023-03-18T23:03:24.267Z,8.77
2023-03-18T23:05:52.700Z,7.75
2023-03-18T23:08:20.328Z,8.48
2023-03-18T23:10:48.035Z,7.80
2023-03-18T23:13:17.298Z,9.48
2023-03-18T23:15:44.695Z,8.63
2023-03-18T23:18:16.337Z,7.63
2023-03-18T23:20:52.643Z,9.82
2023-03-18T23:23:20.999Z,7.35
2023-03-18T23:25:48.222Z,8.25
2023-03-18T23:28:15.393Z,8.85
2023-03-18T23:30:42.854Z,7.93
2023-03-18T23:33:09.937Z,8.35
2023-03-18T23:35:38.213Z,8.95
2023-03-18T23:38:05.946Z,7.25
2023-03-18T23:40:33.260Z,7.88
2023-03-18T23:43:02.946Z,6.93
2023-03-18T23:45:30.025Z,9.43
2023-03-18T23:47:57.107Z,7.95
2023-03-18T23:50:24.128Z,8.82
2023-03-18T23:52:51.207Z,8.07
2023-03-18T23:55:33.695Z,7.18
2023-03-18T23:58:01.855Z,9.15
